createdAt,value
2019-02-09T00:00:56.843Z,99418.94
2019-02-09T00:03:26.572Z,99413.75
2019-02-09T00:05:56.400Z,99413.75
2019-02-09T00:08:26.125Z,99412.02
2019-02-09T00:10:55.926Z,99394.70
2019-02-09T00:13:25.642Z,99416.77
2019-02-09T00:15:55.387Z,99416.28
2019-02-09T00:18:25.108Z,99417.11
2019-02-09T00:20:54.857Z,99425.59
2019-02-09T00:23:24.587Z,99423.69
2019-02-09T00:25:54.338Z,99412.13
2019-02-09T00:28:24.045Z,99412.13
2019-02-09T00:30:53.795Z,99407.25
2019-02-09T00:33:23.526Z,99390.59
2019-02-09T00:35:53.281Z,99386.31
2019-02-09T00:38:23.003Z,99384.41
2019-02-09T00:40:52.768Z,99375.43
2019-02-09T00:43:22.492Z,99363.89
2019-02-09T00:45:52.374Z,99370.88
2019-02-09T00:48:22.324Z,99356.58
2019-02-09T00:50:55.253Z,99361.80
2019-02-09T00:53:25.090Z,99361.80
2019-02-09T00:55:56.640Z,99360.47
2019-02-09T00:58:26.622Z,99364.75
2019-02-09T01:00:57.680Z,99361.22
2019-02-09T01:03:27.510Z,99356.62
2019-02-09T01:05:57.434Z,99351.00
2019-02-09T01:08:28.924Z,99368.98
2019-02-09T01:11:03.911Z,99371.50
2019-02-09T01:13:33.723Z,99367.83
2019-02-09T01:16:03.471Z,99372.06
2019-02-09T01:18:33.174Z,99365.08
2019-02-09T01:21:02.919Z,99361.48
2019-02-09T01:23:32.654Z,99355.41
2019-02-09T01:26:02.420Z,99351.03
2019-02-09T01:28:32.162Z,99359.48
2019-02-09T01:31:01.950Z,99356.47
2019-02-09T01:33:31.676Z,99348.17
2019-02-09T01:36:01.413Z,99356.72
2019-02-09T01:38:31.125Z,99357.23
2019-02-09T01:41:00.862Z,99348.99
2019-02-09T01:43:30.583Z,99348.85
2019-02-09T01:46:00.329Z,99357.45
2019-02-09T01:48:30.053Z,99362.23
2019-02-09T01:50:59.779Z,99352.60
2019-02-09T01:53:29.524Z,99352.22
2019-02-09T01:55:59.263Z,99335.44
2019-02-09T01:58:28.990Z,99341.00
2019-02-09T02:00:58.732Z,99341.00
2019-02-09T02:03:28.471Z,99322.88
2019-02-09T02:05:58.222Z,99314.16
2019-02-09T02:08:27.948Z,99305.91
2019-02-09T02:10:57.690Z,99302.03
2019-02-09T02:13:27.422Z,99294.65
2019-02-09T02:15:57.241Z,99296.84
2019-02-09T02:18:26.968Z,99295.17
2019-02-09T02:20:56.707Z,99299.48
2019-02-09T02:23:26.469Z,99287.36
2019-02-09T02:25:56.197Z,99279.69
2019-02-09T02:28:25.929Z,99281.45
2019-02-09T02:30:55.691Z,99282.31
2019-02-09T02:33:25.443Z,99282.36
2019-02-09T02:35:55.163Z,99282.28
2019-02-09T02:38:24.875Z,99295.22
2019-02-09T02:40:54.609Z,99275.41
2019-02-09T02:43:24.316Z,99271.39
2019-02-09T02:45:54.072Z,99277.05
2019-02-09T02:48:23.811Z,99281.75
2019-02-09T02:50:53.560Z,99269.67
2019-02-09T02:53:23.285Z,99253.58
2019-02-09T02:55:53.029Z,99254.44
2019-02-09T02:58:22.753Z,99252.91
2019-02-09T03:00:52.504Z,99254.26
2019-02-09T03:03:22.237Z,99246.11
2019-02-09T03:05:51.977Z,99241.27
2019-02-09T03:08:21.701Z,99230.48
2019-02-09T03:10:51.440Z,99225.84
2019-02-09T03:13:21.169Z,99224.94
2019-02-09T03:15:51.028Z,99246.53
2019-02-09T03:18:20.703Z,99236.67
2019-02-09T03:20:50.460Z,99239.17
2019-02-09T03:23:20.167Z,99227.52
2019-02-09T03:25:49.922Z,99228.00
2019-02-09T03:28:19.650Z,99229.25
2019-02-09T03:30:49.546Z,99233.22
2019-02-09T03:33:19.281Z,99226.49
2019-02-09T03:35:50.075Z,99225.97
2019-02-09T03:38:19.815Z,99233.73
2019-02-09T03:40:49.535Z,99227.39
2019-02-09T03:43:19.279Z,99235.08
2019-02-09T03:45:48.997Z,99222.61
2019-02-09T03:48:18.742Z,99229.08
2019-02-09T03:50:48.463Z,99232.14
2019-02-09T03:53:18.186Z,99228.22
2019-02-09T03:55:47.907Z,99225.71
2019-02-09T03:58:17.655Z,99227.83
2019-02-09T04:00:55.158Z,99226.31
2019-02-09T04:03:18.809Z,99225.41
2019-02-09T04:05:48.517Z,99231.92
2019-02-09T04:08:18.275Z,99241.41
2019-02-09T04:10:48.066Z,99241.97
2019-02-09T04:13:17.940Z,99240.25
2019-02-09T04:15:47.592Z,99237.66
2019-02-09T04:18:17.330Z,99256.34
2019-02-09T04:20:47.031Z,99247.83
2019-02-09T04:23:16.785Z,99240.45
2019-02-09T04:25:46.549Z,99247.43
2019-02-09T04:28:16.280Z,99237.07
2019-02-09T04:30:45.981Z,99232.25
2019-02-09T04:33:15.723Z,99256.34
2019-02-09T04:35:45.440Z,99260.11
2019-02-09T04:38:15.177Z,99265.64
2019-02-09T04:40:44.899Z,99257.95
2019-02-09T04:43:14.629Z,99243.20
2019-02-09T04:45:44.324Z,99255.28
2019-02-09T04:48:14.047Z,99241.59
2019-02-09T04:50:43.749Z,99265.84
2019-02-09T04:53:13.580Z,99256.89
2019-02-09T04:55:43.362Z,99256.42
2019-02-09T04:58:13.107Z,99260.03
2019-02-09T05:00:42.812Z,99258.30
2019-02-09T05:03:12.571Z,99252.79
2019-02-09T05:05:42.288Z,99247.28
2019-02-09T05:08:12.028Z,99266.61
2019-02-09T05:10:41.750Z,99255.42
2019-02-09T05:13:11.470Z,99264.52
2019-02-09T05:15:41.182Z,99251.17
2019-02-09T05:18:10.924Z,99262.36
2019-02-09T05:20:40.658Z,99248.98
2019-02-09T05:23:10.427Z,99248.98
2019-02-09T05:25:40.303Z,99252.00
2019-02-09T05:28:10.061Z,99264.45
2019-02-09T05:30:39.758Z,99277.37
2019-02-09T05:33:09.504Z,99276.55
2019-02-09T05:35:39.218Z,99285.34
2019-02-09T05:38:08.954Z,99290.95
2019-02-09T05:40:38.673Z,99293.83
2019-02-09T05:43:08.411Z,99298.54
2019-02-09T05:45:38.132Z,99320.22
2019-02-09T05:48:07.863Z,99290.38
2019-02-09T05:50:37.610Z,99301.60
2019-02-09T05:53:07.357Z,99314.56
2019-02-09T05:55:37.095Z,99292.21
2019-02-09T05:58:06.832Z,99311.07
2019-02-09T06:00:38.190Z,99324.61
2019-02-09T06:03:07.967Z,99331.09
2019-02-09T06:05:37.754Z,99328.03
2019-02-09T06:08:07.486Z,99328.19
2019-02-09T06:10:37.205Z,99345.85
2019-02-09T06:13:06.971Z,99357.55
2019-02-09T06:15:36.699Z,99354.14
2019-02-09T06:18:06.439Z,99350.52
2019-02-09T06:20:36.155Z,99352.72
2019-02-09T06:23:05.899Z,99353.97
2019-02-09T06:25:35.608Z,99366.88
2019-02-09T06:28:05.348Z,99361.84
2019-02-09T06:30:35.068Z,99362.14
2019-02-09T06:33:04.824Z,99363.34
2019-02-09T06:35:34.547Z,99356.48
2019-02-09T06:38:04.291Z,99375.09
2019-02-09T06:40:34.040Z,99372.93
2019-02-09T06:43:03.962Z,99368.91
2019-02-09T06:45:33.708Z,99366.02
2019-02-09T06:48:24.048Z,99365.06
2019-02-09T06:50:54.816Z,99376.86
2019-02-09T06:53:24.576Z,99371.72
2019-02-09T06:55:54.297Z,99382.91
2019-02-09T06:58:24.022Z,99390.33
2019-02-09T07:00:53.773Z,99404.33
2019-02-09T07:03:23.495Z,99414.61
2019-02-09T07:05:53.226Z,99396.64
2019-02-09T07:08:22.991Z,99381.86
2019-02-09T07:10:52.698Z,99401.52
2019-02-09T07:13:22.451Z,99399.31
2019-02-09T07:15:52.179Z,99410.23
2019-02-09T07:18:21.916Z,99427.95
2019-02-09T07:20:51.639Z,99408.94
2019-02-09T07:23:21.379Z,99424.53
2019-02-09T07:25:51.130Z,99424.45
2019-02-09T07:28:20.896Z,99435.56
2019-02-09T07:30:50.612Z,99432.58
2019-02-09T07:33:20.336Z,99436.98
2019-02-09T07:35:50.100Z,99432.58
2019-02-09T07:38:19.835Z,99460.70
2019-02-09T07:40:49.591Z,99417.62
2019-02-09T07:43:19.392Z,99430.32
2019-02-09T07:45:49.149Z,99428.98
2019-02-09T07:48:18.875Z,99449.38
2019-02-09T07:50:48.627Z,99442.58
2019-02-09T07:53:18.341Z,99443.05
2019-02-09T07:55:48.116Z,99448.98
2019-02-09T07:58:17.850Z,99449.89
2019-02-09T08:00:47.596Z,99450.83
2019-02-09T08:03:17.347Z,99461.99
2019-02-09T08:05:47.082Z,99474.05
2019-02-09T08:08:16.828Z,99487.62
2019-02-09T08:10:46.578Z,99495.57
2019-02-09T08:13:16.866Z,99478.72
2019-02-09T08:15:46.607Z,99510.36
2019-02-09T08:18:16.334Z,99488.70
2019-02-09T08:20:46.090Z,99487.02
2019-02-09T08:23:15.819Z,99511.22
2019-02-09T08:25:45.529Z,99503.35
2019-02-09T08:28:15.342Z,99503.05
2019-02-09T08:30:46.732Z,99510.83
2019-02-09T08:33:16.472Z,99542.82
2019-02-09T08:35:46.218Z,99506.29
2019-02-09T08:38:16.736Z,99518.27
2019-02-09T08:40:46.484Z,99534.30
2019-02-09T08:43:16.250Z,99519.52
2019-02-09T08:45:45.975Z,99519.52
2019-02-09T08:48:15.735Z,99527.69
2019-02-09T08:50:51.475Z,99555.88
2019-02-09T08:53:21.257Z,99555.88
2019-02-09T08:55:50.994Z,99536.55
2019-02-09T08:58:20.744Z,99540.61
2019-02-09T09:00:50.512Z,99536.72
2019-02-09T09:03:20.251Z,99547.19
2019-02-09T09:05:49.981Z,99552.49
2019-02-09T09:08:19.703Z,99547.30
2019-02-09T09:10:49.456Z,99577.23
2019-02-09T09:13:19.254Z,99577.23
2019-02-09T09:15:52.122Z,99548.91
2019-02-09T09:18:21.834Z,99559.07
2019-02-09T09:20:54.470Z,99560.08
2019-02-09T09:23:24.194Z,99579.31
2019-02-09T09:25:53.950Z,99579.31
2019-02-09T09:28:23.668Z,99549.20
2019-02-09T09:30:53.437Z,99553.64
2019-02-09T09:33:23.217Z,99564.48
2019-02-09T09:35:53.011Z,99572.13
2019-02-09T09:38:22.750Z,99575.98
2019-02-09T09:40:52.476Z,99585.62
2019-02-09T09:43:22.201Z,99576.67
2019-02-09T09:45:51.966Z,99576.67
2019-02-09T09:48:21.771Z,99570.31
2019-02-09T09:50:51.511Z,99570.31
2019-02-09T09:53:21.237Z,99577.95
2019-02-09T09:55:51.173Z,99577.95
2019-02-09T09:58:20.918Z,99581.68
2019-02-09T10:00:50.666Z,99554.77
2019-02-09T10:03:20.388Z,99573.77
2019-02-09T10:05:50.119Z,99605.13
2019-02-09T10:08:19.847Z,99584.25
2019-02-09T10:10:49.586Z,99598.83
2019-02-09T10:13:19.329Z,99581.29
2019-02-09T10:15:49.083Z,99588.03
2019-02-09T10:18:18.830Z,99588.03
2019-02-09T10:20:49.684Z,99568.34
2019-02-09T10:23:19.407Z,99572.70
2019-02-09T10:25:49.163Z,99565.23
2019-02-09T10:28:18.896Z,99604.53
2019-02-09T10:30:48.626Z,99604.53
2019-02-09T10:33:18.341Z,99578.91
2019-02-09T10:35:48.095Z,99587.14
2019-02-09T10:38:17.823Z,99591.47
2019-02-09T10:40:47.601Z,99591.47
2019-02-09T10:43:18.811Z,99576.89
2019-02-09T10:45:48.561Z,99605.17
2019-02-09T10:48:18.445Z,99588.16
2019-02-09T10:50:48.203Z,99574.72
2019-02-09T10:53:17.927Z,99605.36
2019-02-09T10:55:47.665Z,99575.75
2019-02-09T10:58:17.384Z,99605.55
2019-02-09T11:00:49.766Z,99602.25
2019-02-09T11:03:19.561Z,99594.10
2019-02-09T11:05:49.305Z,99619.27
2019-02-09T11:08:19.025Z,99659.11
2019-02-09T11:10:48.776Z,99608.17
2019-02-09T11:13:18.510Z,99601.12
2019-02-09T11:15:48.457Z,99611.50
2019-02-09T11:18:18.163Z,99596.82
2019-02-09T11:20:47.937Z,99595.14
2019-02-09T11:23:17.650Z,99592.66
2019-02-09T11:25:47.451Z,99602.94
2019-02-09T11:28:18.191Z,99612.57
2019-02-09T11:30:47.987Z,99608.15
2019-02-09T11:33:17.692Z,99608.58
2019-02-09T11:35:47.424Z,99613.27
2019-02-09T11:38:17.158Z,99602.74
2019-02-09T11:40:46.909Z,99600.14
2019-02-09T11:43:16.670Z,99607.75
2019-02-09T11:45:46.452Z,99600.65
2019-02-09T11:48:16.156Z,99597.28
2019-02-09T11:50:46.298Z,99620.83
2019-02-09T11:53:16.097Z,99618.35
2019-02-09T11:55:45.970Z,99618.35
2019-02-09T11:58:16.315Z,99600.93
2019-02-09T12:00:51.348Z,99610.13
2019-02-09T12:03:21.103Z,99615.60
2019-02-09T12:05:50.924Z,99603.14
2019-02-09T12:08:20.639Z,99617.28
2019-02-09T12:10:50.494Z,99624.73
2019-02-09T12:13:20.184Z,99632.71
2019-02-09T12:15:49.933Z,99624.12
2019-02-09T12:18:19.681Z,99595.56
2019-02-09T12:20:49.428Z,99621.64
2019-02-09T12:23:19.187Z,99623.00
2019-02-09T12:25:48.925Z,99631.59
2019-02-09T12:28:18.696Z,99621.44
2019-02-09T12:30:48.422Z,99625.34
2019-02-09T12:33:23.167Z,99625.21
2019-02-09T12:35:49.752Z,99604.37
2019-02-09T12:38:19.506Z,99617.44
2019-02-09T12:40:49.227Z,99615.24
2019-02-09T12:43:18.984Z,99615.24
2019-02-09T12:45:48.734Z,99590.66
2019-02-09T12:48:18.503Z,99599.42
2019-02-09T12:50:48.248Z,99596.02
2019-02-09T12:53:19.410Z,99580.00
2019-02-09T12:55:49.219Z,99603.06
2019-02-09T12:58:18.987Z,99618.74
2019-02-09T13:00:48.726Z,99597.59
2019-02-09T13:03:30.913Z,99579.42
2019-02-09T13:05:55.519Z,99608.75
2019-02-09T13:08:25.302Z,99593.56
2019-02-09T13:10:56.056Z,99601.37
2019-02-09T13:13:25.820Z,99605.19
2019-02-09T13:15:55.587Z,99623.12
2019-02-09T13:18:25.360Z,99586.05
2019-02-09T13:20:55.102Z,99573.02
2019-02-09T13:23:24.894Z,99590.64
2019-02-09T13:25:54.658Z,99587.03
2019-02-09T13:28:24.426Z,99605.53
2019-02-09T13:30:54.204Z,99589.61
2019-02-09T13:33:23.976Z,99579.55
2019-02-09T13:35:53.724Z,99581.69
2019-02-09T13:38:23.452Z,99588.15
2019-02-09T13:40:53.218Z,99591.18
2019-02-09T13:43:22.956Z,99586.07
2019-02-09T13:45:52.725Z,99604.66
2019-02-09T13:48:22.434Z,99598.47
2019-02-09T13:50:52.194Z,99576.94
2019-02-09T13:53:22.895Z,99601.62
2019-02-09T13:55:52.678Z,99594.16
2019-02-09T13:58:22.466Z,99656.17
2019-02-09T14:00:52.222Z,99689.22
2019-02-09T14:03:21.976Z,99678.31
2019-02-09T14:05:51.819Z,99650.10
2019-02-09T14:08:21.579Z,99676.76
2019-02-09T14:10:51.314Z,99676.76
2019-02-09T14:13:21.043Z,99660.30
2019-02-09T14:15:50.821Z,99661.12
2019-02-09T14:18:20.551Z,99734.01
2019-02-09T14:23:38.425Z,99674.14
2019-02-09T14:26:08.197Z,99696.30
2019-02-09T14:28:37.933Z,99696.30
2019-02-09T14:31:09.374Z,99669.92
2019-02-09T14:33:39.118Z,99689.16
2019-02-09T14:36:08.854Z,99697.32
2019-02-09T14:38:50.887Z,99673.86
2019-02-09T14:41:26.468Z,99673.86
2019-02-09T14:44:01.681Z,99694.69
2019-02-09T14:46:45.353Z,99692.55
2019-02-09T14:49:15.069Z,99686.27
2019-02-09T14:51:44.825Z,99696.89
2019-02-09T14:54:14.593Z,99696.89
2019-02-09T14:56:44.337Z,99683.34
2019-02-09T14:59:14.065Z,99687.29
2019-02-09T15:01:44.906Z,99682.02
2019-02-09T15:04:14.636Z,99697.87
2019-02-09T15:06:44.403Z,99678.94
2019-02-09T15:09:15.036Z,99680.81
2019-02-09T15:11:44.811Z,99686.56
2019-02-09T15:14:15.620Z,99721.19
2019-02-09T15:16:45.370Z,99688.80
2019-02-09T15:19:15.083Z,99693.64
2019-02-09T15:21:44.840Z,99693.42
2019-02-09T15:24:20.442Z,99693.34
2019-02-09T15:26:50.203Z,99683.27
2019-02-09T15:29:19.967Z,99683.70
2019-02-09T15:31:49.698Z,99693.27
2019-02-09T15:34:19.417Z,99692.37
2019-02-09T15:36:49.167Z,99700.12
2019-02-09T15:39:19.110Z,99702.52
2019-02-09T15:41:48.908Z,99724.37
2019-02-09T15:44:18.649Z,99709.74
2019-02-09T15:46:48.472Z,99725.84
2019-02-09T15:49:18.213Z,99714.72
2019-02-09T15:51:47.957Z,99710.48
2019-02-09T15:54:17.678Z,99710.32
2019-02-09T15:56:47.498Z,99730.81
2019-02-09T15:59:17.223Z,99744.09
2019-02-09T16:01:47.073Z,99765.47
2019-02-09T16:04:18.180Z,99760.47
2019-02-09T16:06:48.079Z,99760.47
2019-02-09T16:09:17.858Z,99763.01
2019-02-09T16:11:47.603Z,99756.45
2019-02-09T16:14:17.435Z,99761.83
2019-02-09T16:16:47.198Z,99770.05
2019-02-09T16:19:16.940Z,99767.44
2019-02-09T16:21:46.777Z,99769.30
2019-02-09T16:24:17.517Z,99773.56
2019-02-09T16:26:47.295Z,99771.47
2019-02-09T16:29:17.097Z,99771.47
2019-02-09T16:31:46.944Z,99764.13
2019-02-09T16:34:25.467Z,99783.95
2019-02-09T16:45:44.857Z,99797.64
2019-02-09T16:48:14.616Z,99801.73
2019-02-09T16:50:44.356Z,99815.69
2019-02-09T16:53:14.173Z,99811.42
2019-02-09T16:55:43.905Z,99826.78
2019-02-09T16:58:13.660Z,99813.66
2019-02-09T17:00:45.680Z,99822.80
2019-02-09T17:03:15.408Z,99820.52
2019-02-09T17:05:46.236Z,99830.86
2019-02-09T17:08:15.990Z,99844.80
2019-02-09T17:10:45.761Z,99841.72
2019-02-09T17:13:15.485Z,99851.30
2019-02-09T17:15:45.226Z,99853.99
2019-02-09T17:18:14.967Z,99855.98
2019-02-09T17:20:45.797Z,99859.69
2019-02-09T17:23:16.625Z,99850.73
2019-02-09T17:25:46.369Z,99858.94
2019-02-09T17:28:16.096Z,99866.66
2019-02-09T17:30:45.881Z,99868.62
2019-02-09T17:33:15.679Z,99863.58
2019-02-09T17:35:45.429Z,99866.10
2019-02-09T17:38:16.262Z,99870.17
2019-02-09T17:40:47.725Z,99879.67
2019-02-09T17:43:17.477Z,99882.88
2019-02-09T17:45:53.483Z,99878.87
2019-02-09T17:48:23.263Z,99883.25
2019-02-09T17:50:52.996Z,99897.74
2019-02-09T17:53:22.761Z,99890.48
2019-02-09T17:55:53.648Z,99901.20
2019-02-09T17:58:23.409Z,99892.25
2019-02-09T18:00:57.531Z,99884.73
2019-02-09T18:03:27.279Z,99889.34
2019-02-09T18:05:57.012Z,99897.28
2019-02-09T19:17:54.086Z,99940.42
2019-02-09T19:20:35.744Z,99949.19
2019-02-09T19:23:05.788Z,99953.98
2019-02-09T19:25:35.817Z,99960.17
2019-02-09T19:28:05.841Z,99938.61
2019-02-09T19:30:35.654Z,99952.45
2019-02-09T19:33:06.227Z,99962.70
2019-02-09T19:35:35.994Z,99958.44
2019-02-09T19:38:05.754Z,99970.92
2019-02-09T19:40:35.565Z,99960.30
2019-02-09T19:43:05.380Z,99972.39
2019-02-09T19:45:36.695Z,99963.63
2019-02-09T19:48:07.491Z,99964.52
2019-02-09T19:50:37.239Z,99957.14
2019-02-09T19:53:07.067Z,99959.80
2019-02-09T19:55:37.060Z,99962.84
2019-02-09T19:58:07.012Z,99964.63
2019-02-09T20:00:45.713Z,99973.71
2019-02-09T20:03:15.644Z,99967.59
2019-02-09T20:05:45.378Z,99953.08
2019-02-09T20:08:15.136Z,99965.98
2019-02-09T20:10:45.015Z,99970.25
2019-02-09T20:13:15.038Z,99979.63
2019-02-09T20:15:44.792Z,99958.20
2019-02-09T20:18:14.521Z,99974.13
2019-02-09T20:20:47.231Z,99977.89
2019-02-09T20:23:15.833Z,99972.70
2019-02-09T20:25:45.552Z,99981.09
2019-02-09T20:28:15.309Z,99971.73
2019-02-09T20:30:45.061Z,99983.88
2019-02-09T20:33:14.854Z,99983.88
2019-02-09T20:35:44.659Z,99972.46
2019-02-09T20:38:14.392Z,99981.00
2019-02-09T20:40:49.595Z,99978.95
2019-02-09T20:43:21.504Z,99977.66
2019-02-09T20:45:51.279Z,99976.30
2019-02-09T20:48:21.057Z,99984.14
2019-02-09T20:50:50.886Z,99989.08
2019-02-09T20:53:20.646Z,99982.66
2019-02-09T20:55:50.381Z,99989.25
2019-02-09T20:58:20.239Z,99981.68
2019-02-09T21:00:50.064Z,99992.43
2019-02-09T21:03:19.840Z,99986.75
2019-02-09T21:05:49.756Z,99973.77
2019-02-09T21:08:19.520Z,99981.61
2019-02-09T21:10:49.258Z,99967.72
2019-02-09T21:13:19.022Z,99988.97
2019-02-09T21:15:48.815Z,99979.26
2019-02-09T21:18:18.569Z,99979.26
2019-02-09T21:20:48.351Z,99984.94
2019-02-09T21:23:18.189Z,99988.84
2019-02-09T21:25:48.403Z,99983.22
2019-02-09T21:28:18.148Z,99969.39
2019-02-09T21:30:47.889Z,99974.20
2019-02-09T21:33:17.620Z,99983.35
2019-02-09T21:35:47.357Z,99968.95
2019-02-09T21:38:17.133Z,99967.41
2019-02-09T21:40:46.893Z,99967.41
2019-02-09T21:43:16.660Z,99960.86
2019-02-09T21:45:46.410Z,99969.39
2019-02-09T21:48:16.322Z,99966.11
2019-02-09T21:50:46.079Z,99953.59
2019-02-09T21:53:15.840Z,99975.27
2019-02-09T21:55:45.566Z,99968.77
2019-02-09T21:58:15.328Z,99969.07
2019-02-09T22:00:45.665Z,99958.41
2019-02-09T22:03:15.533Z,99969.39
2019-02-09T22:05:51.731Z,99970.01
2019-02-09T22:08:19.971Z,99968.59
2019-02-09T22:10:49.577Z,99964.52
2019-02-09T22:13:19.316Z,99960.73
2019-02-09T22:15:49.095Z,99956.42
2019-02-09T22:18:18.818Z,99958.64
2019-02-09T22:20:52.750Z,99969.39
2019-02-09T22:23:20.019Z,99964.70
2019-02-09T22:25:49.885Z,99959.45
2019-02-09T22:28:19.674Z,99955.00
2019-02-09T22:30:49.455Z,99948.95
2019-02-09T22:33:24.736Z,99949.13
2019-02-09T22:35:50.662Z,99951.17
2019-02-09T22:38:20.535Z,99953.32
2019-02-09T22:40:50.319Z,99949.36
2019-02-09T22:43:20.075Z,99954.14
2019-02-09T22:45:49.884Z,99944.31
2019-02-09T22:48:19.705Z,99942.59
2019-02-09T22:50:49.538Z,99945.11
2019-02-09T22:53:19.310Z,99929.12
2019-02-09T22:55:49.042Z,99926.09
2019-02-09T22:58:19.851Z,99927.70
2019-02-09T23:01:15.305Z,99925.92
2019-02-09T23:04:00.353Z,99921.89
2019-02-09T23:06:57.427Z,99930.42
2019-02-09T23:09:27.287Z,99923.50
2019-02-09T23:11:57.008Z,99915.66
2019-02-09T23:14:26.780Z,99908.25
2019-02-09T23:16:56.596Z,99913.81
2019-02-09T23:19:26.347Z,99915.84
2019-02-09T23:21:56.065Z,99909.98
2019-02-09T23:24:25.836Z,99906.03
2019-02-09T23:26:56.643Z,99903.06
2019-02-09T23:29:26.418Z,99903.24
2019-02-09T23:31:56.150Z,99901.08
2019-02-09T23:34:25.915Z,99908.80
2019-02-09T23:36:55.642Z,99905.41
2019-02-09T23:39:25.384Z,99884.38
2019-02-09T23:41:55.103Z,99892.20
2019-02-09T23:44:24.854Z,99889.73
2019-02-09T23:46:54.576Z,99885.47
2019-02-09T23:49:24.327Z,99881.20
2019-02-09T23:51:54.100Z,99882.00
2019-02-09T23:54:23.825Z,99873.36
2019-02-09T23:56:53.637Z,99872.33
2019-02-09T23:59:23.374Z,99877.95
